Time;durP1;ratioP1;P1;durP2;ratioP2;P2;SDS_P1;SDS_P2;PMS_P1;PMS_P2;Temp;Humidity;BMP_temperature;BMP_pressure;BME280_temperature;BME280_humidity;BME280_pressure;Samples;Min_cycle;Max_cycle;Signal;HPM_P1;HPM_P2
2021/09/28 00:00:18;;;;;;;11.80;4.07;;;;;;;10.27;93.55;101965.31;2065411;28;20034;-65
2021/09/28 00:01:19;;;;;;;10.10;3.93;;;;;;;10.30;93.56;101972.22;2066107;28;20482;-63
2021/09/28 00:02:19;;;;;;;11.63;3.50;;;;;;;10.32;93.62;101960.00;2066136;28;20113;-64
2021/09/28 00:03:19;;;;;;;7.03;3.43;;;;;;;10.35;92.60;101959.94;2065441;28;20061;-64
2021/09/28 00:04:19;;;;;;;6.97;3.83;;;;;;;10.34;93.09;101962.56;2065377;28;20539;-65
2021/09/28 00:05:20;;;;;;;4.40;3.03;;;;;;;10.30;93.17;101964.41;2065582;28;20046;-64
2021/09/28 00:06:20;;;;;;;7.75;3.90;;;;;;;10.29;93.11;101966.16;2065895;28;20031;-63
2021/09/28 00:07:20;;;;;;;6.53;3.40;;;;;;;10.31;92.83;101968.72;2066065;28;20018;-65
2021/09/28 00:08:21;;;;;;;13.60;5.73;;;;;;;10.35;93.02;101965.16;2066032;28;20058;-65
2021/09/28 00:09:21;;;;;;;10.33;3.20;;;;;;;10.33;92.39;101963.47;2065334;28;20030;-64
2021/09/28 00:10:21;;;;;;;10.87;3.80;;;;;;;10.27;93.28;101973.13;2065503;28;20558;-65
2021/09/28 00:11:22;;;;;;;6.80;3.57;;;;;;;10.21;93.47;101968.06;2065363;28;20037;-65
2021/09/28 00:12:22;;;;;;;5.93;3.03;;;;;;;10.18;93.12;101969.00;2065497;28;20084;-65
2021/09/28 00:13:22;;;;;;;8.27;3.73;;;;;;;10.17;93.63;101964.66;2065546;28;20035;-65
2021/09/28 00:14:23;;;;;;;13.10;3.87;;;;;;;10.15;93.88;101965.59;2065599;28;20022;-64
2021/09/28 00:15:24;;;;;;;;;;;;;;;10.13;93.28;101970.00;2064955;28;20022;-63
2021/09/28 00:16:24;;;;;;;8.52;3.10;;;;;;;10.15;93.57;101973.41;2057425;28;19914;-65
2021/09/28 00:17:24;;;;;;;12.87;3.90;;;;;;;10.15;93.17;101968.19;2065662;28;20024;-65
2021/09/28 00:18:26;;;;;;;9.87;3.63;;;;;;;10.14;93.07;101969.09;2066336;28;20018;-66
2021/09/28 00:19:26;;;;;;;;;;;;;;;10.14;93.72;101969.97;2066802;28;20021;-65
2021/09/28 00:20:26;;;;;;;8.83;3.33;;;;;;;10.15;93.63;101976.03;2066263;28;20327;-65
2021/09/28 00:21:27;;;;;;;9.40;3.20;;;;;;;10.14;93.76;101982.16;2066165;28;20281;-64
2021/09/28 00:22:27;;;;;;;9.80;4.07;;;;;;;10.15;93.76;101969.06;2066013;28;20375;-65
2021/09/28 00:23:27;;;;;;;5.90;4.20;;;;;;;10.12;93.66;101979.56;2066174;28;20053;-65
2021/09/28 00:24:28;;;;;;;8.90;4.10;;;;;;;10.10;94.19;101981.38;2066221;28;20482;-64
2021/09/28 00:25:28;;;;;;;9.05;3.63;;;;;;;10.08;94.02;101982.28;2066437;28;20386;-65
2021/09/28 00:26:28;;;;;;;8.43;2.63;;;;;;;10.07;94.20;101981.44;2066166;28;20076;-65
2021/09/28 00:27:29;;;;;;;10.80;3.00;;;;;;;10.05;94.16;101984.06;2066222;28;20105;-66
2021/09/28 00:28:30;;;;;;;11.38;2.63;;;;;;;10.07;94.20;101985.78;2066264;28;20018;-65
2021/09/28 00:29:30;;;;;;;12.10;2.92;;;;;;;10.05;94.40;101988.41;2066398;28;20018;-65
2021/09/28 00:30:31;;;;;;;8.73;2.90;;;;;;;10.03;94.60;101991.06;2066276;28;20365;-65
2021/09/28 00:31:31;;;;;;;9.87;3.20;;;;;;;10.03;94.36;101991.06;2066120;28;20030;-64
2021/09/28 00:32:31;;;;;;;8.43;3.10;;;;;;;10.03;94.29;101992.81;2066299;28;20486;-65
2021/09/28 00:33:32;;;;;;;8.20;3.67;;;;;;;10.04;94.42;101986.72;2065544;28;20109;-64
2021/09/28 00:34:34;;;;;;;12.07;4.15;;;;;;;10.05;94.29;101994.50;2065645;28;20028;-65
2021/09/28 00:35:35;;;;;;;17.05;4.05;;;;;;;10.04;94.23;101992.78;2066204;28;20422;-65
2021/09/28 00:36:35;;;;;;;10.32;4.07;;;;;;;10.04;94.21;101992.78;2066157;28;20033;-65
2021/09/28 00:37:36;;;;;;;14.30;3.40;;;;;;;10.05;93.61;101994.50;2066070;28;20018;-66
2021/09/28 00:38:36;;;;;;;9.57;3.43;;;;;;;10.03;94.38;101993.66;2066185;28;20379;-65
2021/09/28 00:39:36;;;;;;;10.83;3.40;;;;;;;10.00;94.13;101995.50;2066089;28;20029;-66
2021/09/28 00:40:36;;;;;;;8.43;3.47;;;;;;;9.97;94.65;101995.56;2066304;28;20014;-66
2021/09/28 00:41:37;;;;;;;7.87;3.63;;;;;;;9.96;94.21;101994.69;2066705;28;20388;-65
2021/09/28 00:42:37;;;;;;;7.80;3.63;;;;;;;9.97;94.30;101996.44;2066357;28;20124;-65
2021/09/28 00:43:45;;;;;;;10.57;3.33;;;;;;;10.00;94.42;101990.28;2066227;28;20068;-65
2021/09/28 00:44:45;;;;;;;10.50;3.35;;;;;;;10.02;94.11;101989.34;2066247;28;20077;-65
2021/09/28 00:45:45;;;;;;;6.77;3.27;;;;;;;10.06;93.87;101995.34;2065699;28;20497;-65
2021/09/28 00:46:46;;;;;;;10.77;3.70;;;;;;;10.04;94.25;101998.00;2065628;28;20084;-65
2021/09/28 00:47:46;;;;;;;10.23;4.20;;;;;;;10.02;94.05;101988.47;2065916;28;20506;-65
2021/09/28 00:48:47;;;;;;;11.50;3.85;;;;;;;10.01;93.96;101991.97;2065805;28;20057;-65
2021/09/28 00:49:48;;;;;;;9.70;3.80;;;;;;;10.01;94.24;101986.78;2065143;28;20324;-65
2021/09/28 00:50:49;;;;;;;8.65;3.40;;;;;;;10.00;94.51;101996.38;2065258;28;20026;-65
2021/09/28 00:51:50;;;;;;;9.18;3.90;;;;;;;9.98;94.41;101992.91;2065755;28;20057;-65
2021/09/28 00:52:50;;;;;;;11.40;3.30;;;;;;;9.95;94.28;101992.13;2065875;28;20026;-65
2021/09/28 00:53:53;;;;;;;12.10;4.03;;;;;;;9.93;94.31;101994.78;2065769;28;20076;-64
2021/09/28 00:54:54;;;;;;;9.38;3.78;;;;;;;9.92;94.53;101993.03;2065763;28;20391;-66
2021/09/28 00:55:54;;;;;;;11.07;4.93;;;;;;;9.92;94.19;101993.03;2065114;28;20030;-66
2021/09/28 00:56:54;;;;;;;7.90;3.50;;;;;;;9.93;94.09;101997.38;2065141;28;20085;-66
2021/09/28 00:57:56;;;;;;;8.23;3.90;;;;;;;9.92;94.61;101999.13;2065625;28;20061;-66
2021/09/28 00:59:00;;;;;;;9.27;3.45;;;;;;;9.90;94.58;101994.84;2064923;28;20085;-65
2021/09/28 01:00:04;;;;;;;9.55;3.72;;;;;;;9.93;94.49;101994.78;2057474;28;20054;-65
2021/09/28 01:01:05;;;;;;;10.07;3.88;;;;;;;9.95;94.48;101999.97;2065167;28;20022;-65
2021/09/28 01:02:07;;;;;;;8.85;3.83;;;;;;;9.94;94.31;101993.88;2065651;28;20037;-64
2021/09/28 01:03:09;;;;;;;8.13;3.35;;;;;;;9.90;94.24;102000.91;2065622;28;20041;-64
2021/09/28 01:04:10;;;;;;;7.40;3.60;;;;;;;9.89;94.66;101999.19;2065682;28;20457;-65
2021/09/28 01:05:10;;;;;;;8.33;3.93;;;;;;;9.87;94.48;101995.75;2065681;28;20030;-63
2021/09/28 01:06:11;;;;;;;9.90;3.03;;;;;;;9.87;94.53;101993.16;2065694;28;20292;-64
2021/09/28 01:07:11;;;;;;;9.57;3.28;;;;;;;9.86;94.26;101994.03;2065684;28;20050;-64
2021/09/28 01:08:11;;;;;;;14.17;3.87;;;;;;;9.86;94.54;101998.41;2065794;28;20547;-65
2021/09/28 01:09:12;;;;;;;7.50;3.63;;;;;;;9.84;94.17;101994.94;2065682;28;20105;-65
2021/09/28 01:10:13;;;;;;;10.43;4.30;;;;;;;9.82;95.08;101991.53;2065571;28;20022;-64
2021/09/28 01:11:13;;;;;;;10.48;3.50;;;;;;;9.84;94.67;101989.72;2065666;28;20022;-65
2021/09/28 01:12:13;;;;;;;9.97;4.40;;;;;;;9.84;94.38;101989.72;2065505;28;20491;-66
2021/09/28 01:13:14;;;;;;;12.80;5.47;;;;;;;9.83;94.66;101994.09;2065669;28;20479;-64
2021/09/28 01:14:15;;;;;;;9.45;3.80;;;;;;;9.82;94.89;101996.75;2065667;28;20026;-66
2021/09/28 01:15:16;;;;;;;10.50;4.35;;;;;;;9.81;94.68;101995.88;2065565;28;20506;-65
2021/09/28 01:16:16;;;;;;;10.63;3.67;;;;;;;9.84;94.56;101994.94;2065615;28;20365;-66
2021/09/28 01:17:19;;;;;;;9.47;3.87;;;;;;;9.83;95.04;101995.84;2065610;28;20077;-65
2021/09/28 01:18:19;;;;;;;10.93;4.60;;;;;;;9.80;95.11;101994.16;2065581;28;20034;-65
2021/09/28 01:19:19;;;;;;;6.07;3.53;;;;;;;9.81;95.12;101997.63;2065628;28;20046;-65
2021/09/28 01:20:20;;;;;;;8.95;4.07;;;;;;;9.83;94.42;102001.06;2065429;28;20023;-65
2021/09/28 01:21:20;;;;;;;10.33;3.57;;;;;;;9.80;94.67;101999.38;2065628;28;20018;-66
2021/09/28 01:22:20;;;;;;;14.03;4.47;;;;;;;9.79;94.71;102000.28;2065310;28;20408;-65
2021/09/28 01:23:21;;;;;;;7.23;3.73;;;;;;;9.79;94.80;101995.91;2065260;28;20096;-66
2021/09/28 01:24:21;;;;;;;7.43;4.10;;;;;;;9.79;94.75;102005.50;2065286;28;20065;-65
2021/09/28 01:25:21;;;;;;;15.80;4.30;;;;;;;9.75;94.55;102002.06;2065556;28;20027;-65
2021/09/28 01:26:25;;;;;;;14.60;4.47;;;;;;;9.75;94.70;101999.47;2064580;28;20053;-65
2021/09/28 01:27:25;;;;;;;13.20;4.30;;;;;;;9.75;95.26;102004.69;2064983;28;20057;-65
2021/09/28 01:28:25;;;;;;;7.97;4.20;;;;;;;9.77;95.14;102000.31;2065617;28;20390;-66
2021/09/28 01:29:26;;;;;;;7.37;3.20;;;;;;;9.75;95.22;102007.28;2065555;28;20031;-64
2021/09/28 01:30:26;;;;;;;4.97;3.53;;;;;;;9.74;95.24;102004.72;2065600;28;20029;-65
2021/09/28 01:31:26;;;;;;;12.23;3.10;;;;;;;9.71;94.91;102003.03;2065009;28;20061;-65
2021/09/28 01:32:27;;;;;;;10.97;4.23;;;;;;;9.70;95.21;102003.91;2065072;28;20033;-65
2021/09/28 01:33:27;;;;;;;11.30;3.33;;;;;;;9.69;95.25;102004.81;2065576;28;20018;-65
2021/09/28 01:34:27;;;;;;;11.53;3.27;;;;;;;9.69;95.40;102002.22;2065002;28;20053;-65
2021/09/28 01:35:29;;;;;;;8.70;3.90;;;;;;;9.67;95.02;102006.59;2056482;28;20046;-65
2021/09/28 01:36:29;;;;;;;6.57;3.33;;;;;;;9.64;95.33;101999.69;2064892;28;20506;-66
2021/09/28 01:37:29;;;;;;;5.77;3.10;;;;;;;9.61;95.24;102004.13;2065625;28;20023;-65
2021/09/28 01:38:30;;;;;;;14.77;3.70;;;;;;;9.58;95.57;102001.56;2065549;28;20030;-65
2021/09/28 01:39:30;;;;;;;8.67;4.30;;;;;;;9.58;95.68;101998.97;2064754;28;20054;-65
2021/09/28 01:40:31;;;;;;;7.87;3.67;;;;;;;9.59;95.59;102000.66;2064964;28;20293;-64
2021/09/28 01:41:31;;;;;;;12.47;4.17;;;;;;;9.59;95.48;102000.66;2065451;28;20029;-66
2021/09/28 01:42:31;;;;;;;11.80;4.53;;;;;;;9.58;95.23;102001.56;2065389;28;20081;-64
2021/09/28 01:43:32;;;;;;;7.87;3.70;;;;;;;9.58;95.66;101999.81;2064878;28;20038;-65
2021/09/28 01:44:34;;;;;;;14.93;3.70;;;;;;;9.61;95.47;101999.75;2064906;28;20030;-66
2021/09/28 01:45:35;;;;;;;6.03;3.83;;;;;;;9.61;95.40;101994.53;2065415;28;20327;-65
2021/09/28 01:46:40;;;;;;;14.13;4.35;;;;;;;9.59;95.18;102001.53;2065484;28;20022;-66
2021/09/28 01:47:40;;;;;;;8.73;3.15;;;;;;;9.57;95.63;101999.81;2065473;28;20042;-66
2021/09/28 01:48:52;;;;;;;10.23;4.20;;;;;;;9.54;95.67;102005.97;2064812;28;20026;-66
2021/09/28 01:49:53;;;;;;;8.57;3.65;;;;;;;9.50;95.67;102001.69;2064612;28;20029;-66
2021/09/28 01:50:53;;;;;;;9.63;3.47;;;;;;;9.48;95.85;102009.53;2064724;28;20019;-66
2021/09/28 01:51:53;;;;;;;17.37;4.60;;;;;;;9.45;95.46;102009.63;2064901;28;20018;-66
2021/09/28 01:52:53;;;;;;;7.93;3.90;;;;;;;9.43;95.71;102006.16;2065432;28;20058;-65
2021/09/28 01:53:54;;;;;;;9.67;4.73;;;;;;;9.44;95.94;102007.88;2065383;28;20030;-64
2021/09/28 01:54:54;;;;;;;14.03;5.20;;;;;;;9.46;96.27;102000.03;2065428;28;20027;-65
2021/09/28 01:55:54;;;;;;;6.20;3.53;;;;;;;9.46;95.98;102005.25;2064759;28;20089;-65
2021/09/28 01:56:55;;;;;;;9.63;4.23;;;;;;;9.46;95.99;102011.34;2056603;28;20113;-65
2021/09/28 01:57:59;;;;;;;7.17;3.90;;;;;;;9.46;96.23;102010.47;2064640;28;20040;-64
2021/09/28 01:59:00;;;;;;;8.55;4.00;;;;;;;9.44;96.13;102013.09;2065142;28;20050;-65
2021/09/28 02:00:01;;;;;;;9.35;4.32;;;;;;;9.43;96.04;102008.78;2064640;28;20030;-65
2021/09/28 02:01:02;;;;;;;9.50;3.38;;;;;;;9.44;96.06;102013.09;2064825;28;20081;-65
2021/09/28 02:02:03;;;;;;;9.90;4.05;;;;;;;9.46;95.62;102020.88;2064745;28;20034;-65
2021/09/28 02:03:03;;;;;;;9.77;4.23;;;;;;;9.43;95.96;102013.13;2064802;28;20534;-65
2021/09/28 02:04:04;;;;;;;9.93;3.53;;;;;;;9.40;95.39;102014.03;2064787;28;20285;-65
2021/09/28 02:05:04;;;;;;;7.63;3.42;;;;;;;9.38;95.86;102010.63;2064819;28;20034;-65
2021/09/28 02:06:05;;;;;;;12.30;3.63;;;;;;;9.42;96.11;102020.09;2056710;28;20027;-64
2021/09/28 02:07:05;;;;;;;6.70;3.27;;;;;;;9.43;96.02;102014.00;2064761;28;20027;-65
2021/09/28 02:08:06;;;;;;;13.07;4.63;;;;;;;9.43;95.68;102019.19;2065406;28;20106;-64
2021/09/28 02:09:08;;;;;;;;;;;;;;;9.42;95.76;102014.03;2065863;28;20160;-64
2021/09/28 02:10:08;;;;;;;10.43;3.28;;;;;;;9.37;95.65;102017.56;2065392;28;20431;-67
2021/09/28 02:11:09;;;;;;;10.63;3.28;;;;;;;9.35;95.81;102023.69;2065317;28;20030;-66
2021/09/28 02:12:09;;;;;;;10.37;3.57;;;;;;;9.33;95.74;102017.66;2065384;28;20026;-65
2021/09/28 02:13:09;;;;;;;12.60;3.03;;;;;;;9.33;95.63;102015.03;2065372;28;20499;-65
2021/09/28 02:14:10;;;;;;;8.47;3.30;;;;;;;9.32;95.96;102015.94;2065346;28;20039;-64
2021/09/28 02:15:10;;;;;;;10.57;3.67;;;;;;;9.33;96.10;102015.03;2065393;28;20023;-66
2021/09/28 02:16:11;;;;;;;11.13;5.63;;;;;;;9.34;96.01;102014.19;2065401;28;20042;-65
2021/09/28 02:17:12;;;;;;;10.50;3.47;;;;;;;9.31;95.99;102016.81;2065418;28;20438;-66
2021/09/28 02:18:13;;;;;;;7.65;3.60;;;;;;;9.28;96.38;102015.97;2065388;28;20026;-64
2021/09/28 02:19:13;;;;;;;4.97;3.20;;;;;;;9.27;96.26;102022.09;2065379;28;20065;-65
2021/09/28 02:20:13;;;;;;;9.03;3.53;;;;;;;9.31;96.31;102016.81;2065376;28;20030;-66
2021/09/28 02:21:14;;;;;;;10.73;3.97;;;;;;;9.32;96.04;102013.31;2064669;28;20026;-66
2021/09/28 02:22:14;;;;;;;13.53;3.93;;;;;;;9.33;96.29;102018.50;2056614;28;20053;-65
2021/09/28 02:23:14;;;;;;;15.50;4.37;;;;;;;9.37;95.95;102019.31;2064517;28;20110;-64
2021/09/28 02:24:15;;;;;;;7.73;4.63;;;;;;;9.37;95.91;102020.19;2072586;28;20489;-67
2021/09/28 02:25:18;;;;;;;9.75;4.13;;;;;;;9.36;95.33;102015.84;2072743;28;20029;-65
2021/09/28 02:26:19;;;;;;;6.22;3.83;;;;;;;9.35;95.85;102013.28;2065036;28;20076;-65
2021/09/28 02:27:19;;;;;;;7.28;3.22;;;;;;;9.36;95.56;102022.81;2064946;28;20030;-65
2021/09/28 02:28:20;;;;;;;9.40;3.57;;;;;;;9.32;95.72;102021.16;2065078;28;20041;-65
2021/09/28 02:29:20;;;;;;;11.25;4.22;;;;;;;9.29;95.99;102014.25;2065227;28;20029;-65
2021/09/28 02:30:21;;;;;;;7.83;4.00;;;;;;;9.27;96.06;102016.88;2064531;28;20038;-63
2021/09/28 02:31:21;;;;;;;8.13;3.90;;;;;;;9.27;96.38;102016.88;2056588;28;20041;-65
2021/09/28 02:32:22;;;;;;;9.60;3.70;;;;;;;9.32;96.14;102019.41;2064652;28;20030;-65
2021/09/28 02:33:22;;;;;;;9.07;3.47;;;;;;;9.32;96.00;102009.00;2064513;28;20033;-64
2021/09/28 02:34:22;;;;;;;10.50;4.60;;;;;;;9.33;96.04;102015.91;2064610;28;20467;-65
2021/09/28 02:35:23;;;;;;;9.97;4.07;;;;;;;9.34;96.02;102017.63;2065160;28;20026;-65
2021/09/28 02:36:23;;;;;;;10.57;6.43;;;;;;;9.35;95.78;102023.69;2064427;28;20018;-65
2021/09/28 02:37:23;;;;;;;13.67;4.20;;;;;;;9.35;95.42;102015.88;2064461;28;20029;-65
2021/09/28 02:38:23;;;;;;;5.20;2.90;;;;;;;9.37;96.47;102019.31;2065256;28;20479;-65
2021/09/28 02:39:24;;;;;;;10.23;3.10;;;;;;;9.33;95.42;102020.25;2066784;28;20022;-64
2021/09/28 02:40:25;;;;;;;10.60;3.93;;;;;;;9.31;95.51;102022.03;2066680;28;20014;-64
2021/09/28 02:41:25;;;;;;;;;;;;;;;9.28;95.87;102018.59;2067231;28;20022;-66
2021/09/28 02:42:26;;;;;;;7.78;3.55;;;;;;;9.30;95.55;102021.16;2066325;28;20012;-65
2021/09/28 02:43:26;;;;;;;7.27;3.37;;;;;;;9.31;95.59;102016.81;2066701;28;20110;-64
2021/09/28 02:44:26;;;;;;;12.27;3.00;;;;;;;9.27;95.43;102024.69;2066834;28;20396;-65
2021/09/28 02:45:27;;;;;;;5.80;3.27;;;;;;;9.27;95.58;102023.81;2066750;28;20022;-65
2021/09/28 02:46:27;;;;;;;6.75;3.67;;;;;;;9.26;95.02;102027.31;2066743;28;20022;-65
2021/09/28 02:47:28;;;;;;;8.30;4.10;;;;;;;9.24;95.59;102024.75;2066576;28;20029;-65
2021/09/28 02:48:30;;;;;;;6.60;3.90;;;;;;;9.21;95.79;102024.78;2066538;28;20424;-65
2021/09/28 02:49:30;;;;;;;;;;;;;;;9.20;95.95;102025.69;2066489;28;20082;-65
2021/09/28 02:50:33;;;;;;;9.30;3.80;;;;;;;9.24;95.93;102027.34;2065898;28;19949;-66
2021/09/28 02:51:33;;;;;;;12.02;3.70;;;;;;;9.22;95.78;102021.31;2066100;28;20041;-65
2021/09/28 02:52:34;;;;;;;7.87;3.70;;;;;;;9.20;95.90;102030.91;2066675;28;20034;-68
2021/09/28 02:53:34;;;;;;;9.63;4.73;;;;;;;9.17;95.87;102030.94;2065941;28;20144;-65
2021/09/28 02:54:34;;;;;;;9.47;3.33;;;;;;;9.17;96.16;102027.50;2066037;28;20574;-64
2021/09/28 02:55:35;;;;;;;10.13;3.37;;;;;;;9.14;96.00;102033.63;2066418;28;20026;-67
2021/09/28 02:56:35;;;;;;;9.20;3.97;;;;;;;9.14;96.04;102031.03;2066311;28;20053;-66
2021/09/28 02:57:35;;;;;;;10.93;3.67;;;;;;;9.14;96.27;102036.22;2066436;28;20029;-63
2021/09/28 02:58:36;;;;;;;9.73;3.53;;;;;;;9.11;96.32;102025.84;2066366;28;20038;-66
2021/09/28 02:59:37;;;;;;;11.73;4.23;;;;;;;9.12;95.93;102031.03;2066060;28;20026;-66
2021/09/28 03:00:37;;;;;;;;;;;;;;;9.12;96.36;102030.16;2067088;28;20019;-65
2021/09/28 03:01:38;;;;;;;11.65;4.20;;;;;;;9.10;96.26;102035.41;2065791;28;19913;-65
2021/09/28 03:02:38;;;;;;;7.80;3.47;;;;;;;9.13;96.35;102034.47;2065959;28;20104;-65
2021/09/28 03:03:38;;;;;;;7.83;3.67;;;;;;;9.13;96.12;102037.09;2065828;28;20057;-66
2021/09/28 03:04:38;;;;;;;8.63;3.80;;;;;;;9.11;96.25;102039.72;2065864;28;20022;-65
2021/09/28 03:05:39;;;;;;;5.43;3.67;;;;;;;9.14;96.00;102042.28;2065759;28;20029;-66
2021/09/28 03:06:39;;;;;;;9.17;3.70;;;;;;;9.14;96.07;102036.22;2065955;28;20464;-65
2021/09/28 03:07:39;;;;;;;7.10;3.53;;;;;;;9.13;96.01;102039.69;2066461;28;20030;-66
2021/09/28 03:08:39;;;;;;;11.73;3.97;;;;;;;9.08;95.98;102039.78;2066500;28;20030;-66
2021/09/28 03:09:40;;;;;;;5.50;3.40;;;;;;;9.07;95.72;102034.59;2065749;28;20031;-64
2021/09/28 03:10:40;;;;;;;9.73;3.13;;;;;;;9.06;95.91;102041.56;2065976;28;20495;-65
2021/09/28 03:11:40;;;;;;;6.38;3.45;;;;;;;9.04;95.97;102037.25;2065863;28;20026;-65
2021/09/28 03:12:41;;;;;;;6.63;3.80;;;;;;;9.05;96.18;102037.22;2065799;28;20034;-66
2021/09/28 03:13:41;;;;;;;8.40;3.33;;;;;;;9.08;96.59;102044.13;2066422;28;20112;-66
2021/09/28 03:14:41;;;;;;;12.17;4.07;;;;;;;9.06;96.38;102038.94;2066532;28;20101;-66
2021/09/28 03:15:42;;;;;;;7.20;3.60;;;;;;;9.02;95.85;102043.34;2066459;28;20026;-66
2021/09/28 03:16:42;;;;;;;9.57;3.97;;;;;;;8.99;96.50;102048.59;2066319;28;20030;-66
2021/09/28 03:17:42;;;;;;;10.97;3.13;;;;;;;8.98;96.16;102039.09;2066443;28;20026;-67
2021/09/28 03:18:42;;;;;;;8.67;3.77;;;;;;;8.96;96.61;102043.44;2066440;28;20073;-65
2021/09/28 03:19:43;;;;;;;10.03;3.33;;;;;;;8.94;96.60;102045.22;2066462;28;20030;-65
2021/09/28 03:20:43;;;;;;;7.20;3.07;;;;;;;8.93;96.55;102037.44;2065749;28;20026;-65
2021/09/28 03:21:43;;;;;;;11.23;3.30;;;;;;;8.91;96.41;102040.06;2065894;28;20030;-66
2021/09/28 03:22:44;;;;;;;11.37;3.93;;;;;;;8.89;96.65;102037.47;2066456;28;20042;-65
2021/09/28 03:23:44;;;;;;;7.87;3.90;;;;;;;8.92;96.63;102046.13;2065628;28;20030;-65
2021/09/28 03:24:44;;;;;;;10.63;4.47;;;;;;;8.90;96.76;102038.34;2065579;28;20061;-66
2021/09/28 03:25:45;;;;;;;9.13;3.70;;;;;;;8.91;96.50;102039.19;2065339;28;20026;-67
2021/09/28 03:26:46;;;;;;;4.97;3.25;;;;;;;8.89;96.80;102037.47;2057329;28;20034;-65
2021/09/28 03:27:46;;;;;;;8.90;3.83;;;;;;;8.91;96.61;102034.84;2065580;28;20034;-65
2021/09/28 03:28:46;;;;;;;6.43;3.67;;;;;;;8.91;96.79;102040.06;2066151;28;20299;-66
2021/09/28 03:29:47;;;;;;;9.33;4.03;;;;;;;8.91;96.77;102045.28;2066201;28;20415;-65
2021/09/28 03:30:47;;;;;;;8.70;4.07;;;;;;;8.93;96.54;102037.44;2066347;28;20022;-65
2021/09/28 03:31:47;;;;;;;11.93;3.57;;;;;;;8.94;96.67;102039.16;2065722;28;20515;-65
2021/09/28 03:32:47;;;;;;;7.53;3.57;;;;;;;8.93;96.71;102047.84;2065677;28;20076;-66
2021/09/28 03:33:48;;;;;;;4.77;2.70;;;;;;;8.92;96.75;102041.78;2065824;28;20557;-65
2021/09/28 03:34:48;;;;;;;5.17;3.83;;;;;;;8.92;96.85;102041.78;2066246;28;20077;-64
2021/09/28 03:35:48;;;;;;;8.07;4.10;;;;;;;8.93;96.75;102043.50;2066089;28;20467;-65
2021/09/28 03:36:48;;;;;;;10.27;4.10;;;;;;;8.94;97.03;102042.63;2066292;28;20060;-66
2021/09/28 03:37:52;;;;;;;9.70;4.27;;;;;;;8.97;96.59;102049.53;2066222;28;20035;-66
2021/09/28 03:38:53;;;;;;;10.70;3.42;;;;;;;8.94;96.50;102045.22;2066254;28;20451;-66
2021/09/28 03:39:53;;;;;;;11.30;3.33;;;;;;;8.93;96.42;102043.50;2066331;28;20031;-66
2021/09/28 03:40:53;;;;;;;9.97;4.10;;;;;;;8.94;96.18;102045.22;2066288;28;20392;-66
2021/09/28 03:41:53;;;;;;;12.97;4.27;;;;;;;8.97;96.39;102039.09;2066337;28;20061;-63
2021/09/28 03:42:54;;;;;;;8.20;4.77;;;;;;;8.97;96.31;102047.75;2066304;28;20129;-65
2021/09/28 03:43:54;;;;;;;7.07;3.37;;;;;;;8.97;96.25;102045.16;2066202;28;20039;-65
2021/09/28 03:44:54;;;;;;;4.83;3.20;;;;;;;8.93;96.17;102043.50;2065663;28;20068;-66
2021/09/28 03:45:55;;;;;;;6.77;3.50;;;;;;;8.89;96.49;102041.81;2065639;28;20562;-66
2021/09/28 03:46:55;;;;;;;7.63;3.83;;;;;;;8.86;96.38;102047.09;2065932;28;20022;-66
2021/09/28 03:47:55;;;;;;;5.73;3.17;;;;;;;8.86;96.54;102050.53;2065980;28;20030;-65
2021/09/28 03:48:55;;;;;;;5.20;3.90;;;;;;;8.83;96.60;102041.94;2066000;28;20023;-65
2021/09/28 03:49:56;;;;;;;15.83;3.93;;;;;;;8.82;96.33;102041.06;2064802;28;20014;-66
2021/09/28 03:50:57;;;;;;;12.40;3.90;;;;;;;8.85;96.55;102042.75;2065414;28;20093;-66
2021/09/28 03:51:57;;;;;;;10.40;4.30;;;;;;;8.88;96.60;102037.50;2065879;28;20026;-66
2021/09/28 03:52:58;;;;;;;5.53;3.80;;;;;;;8.91;96.67;102040.06;2065819;28;20101;-66
2021/09/28 03:53:58;;;;;;;8.45;4.53;;;;;;;8.93;96.54;102048.69;2065949;28;20491;-66
2021/09/28 03:54:59;;;;;;;12.80;3.43;;;;;;;8.94;96.33;102045.22;2066096;28;20026;-65
2021/09/28 03:55:59;;;;;;;10.13;3.90;;;;;;;8.96;96.36;102043.44;2065706;28;20027;-67
2021/09/28 03:56:59;;;;;;;7.73;3.60;;;;;;;8.96;96.17;102048.66;2065621;28;20061;-65
2021/09/28 03:58:01;;;;;;;11.30;3.90;;;;;;;8.93;96.19;102047.84;2065698;28;20037;-65
2021/09/28 03:59:02;;;;;;;9.30;4.57;;;;;;;8.93;96.25;102051.31;2065756;28;20047;-65
2021/09/28 04:00:03;;;;;;;11.50;4.40;;;;;;;8.87;95.93;102051.41;2065845;28;20590;-65
2021/09/28 04:01:03;;;;;;;;;;;;;;;8.81;95.74;102043.69;2066674;28;20116;-66
2021/09/28 04:02:04;;;;;;;6.07;3.20;;;;;;;8.75;96.19;102050.72;2065675;28;19913;-65
2021/09/28 04:03:05;;;;;;;8.87;3.87;;;;;;;8.75;96.51;102050.72;2065194;28;20285;-65
2021/09/28 04:04:05;;;;;;;8.20;3.90;;;;;;;8.73;96.25;102051.63;2065140;28;20058;-65
2021/09/28 04:05:05;;;;;;;10.87;3.60;;;;;;;8.70;96.71;102042.13;2065693;28;20034;-65
2021/09/28 04:06:06;;;;;;;15.87;3.83;;;;;;;8.71;96.58;102055.97;2065640;28;20030;-66
2021/09/28 04:07:06;;;;;;;6.23;3.33;;;;;;;8.67;96.58;102060.38;2065555;28;20325;-65
2021/09/28 04:08:07;;;;;;;7.83;3.20;;;;;;;8.62;96.92;102054.38;2065644;28;20475;-66
2021/09/28 04:09:07;;;;;;;7.63;3.35;;;;;;;8.65;97.02;102054.34;2065626;28;20037;-65
2021/09/28 04:10:09;;;;;;;5.73;3.63;;;;;;;8.66;97.32;102061.28;2065638;28;20053;-65
2021/09/28 04:11:09;;;;;;;11.43;4.20;;;;;;;8.69;97.09;102056.00;2065085;28;20026;-66
2021/09/28 04:12:10;;;;;;;5.40;4.00;;;;;;;8.70;97.19;102060.34;2065168;28;20116;-65
2021/09/28 04:13:11;;;;;;;6.60;3.27;;;;;;;8.72;97.05;102055.09;2056740;28;19914;-66
2021/09/28 04:14:14;;;;;;;7.15;4.40;;;;;;;8.74;96.96;102059.41;2064993;28;20414;-66
2021/09/28 04:15:14;;;;;;;5.15;2.95;;;;;;;8.71;96.80;102058.59;2065361;28;20468;-66
2021/09/28 04:16:16;;;;;;;6.65;2.00;;;;;;;8.67;96.71;102065.59;2065357;28;20049;-66
2021/09/28 04:17:16;;;;;;;8.73;2.33;;;;;;;8.65;96.75;102067.34;2065515;28;20048;-65
2021/09/28 04:18:17;;;;;;;12.43;3.43;;;;;;;8.63;97.11;102058.72;2064797;28;20022;-65
2021/09/28 04:19:17;;;;;;;6.93;3.77;;;;;;;8.63;96.79;102067.38;2065099;28;20018;-66
2021/09/28 04:20:18;;;;;;;7.13;3.70;;;;;;;8.68;96.84;102059.50;2065696;28;20089;-65
2021/09/28 04:21:18;;;;;;;5.55;3.38;;;;;;;8.70;97.23;102056.88;2065579;28;20069;-67
2021/09/28 04:22:19;;;;;;;7.87;3.80;;;;;;;8.69;96.91;102056.00;2065838;28;20431;-65
2021/09/28 04:23:20;;;;;;;6.90;2.90;;;;;;;8.67;96.99;102057.78;2064675;28;20022;-65
2021/09/28 04:24:20;;;;;;;5.10;3.50;;;;;;;8.67;96.56;102068.19;2064686;28;20036;-66
2021/09/28 04:25:20;;;;;;;3.63;1.80;;;;;;;8.61;96.65;102052.66;2065462;28;20097;-66
2021/09/28 04:26:21;;;;;;;6.30;3.43;;;;;;;8.63;97.14;102063.94;2065460;28;20332;-65
2021/09/28 04:27:21;;;;;;;7.47;3.23;;;;;;;8.64;96.94;102052.63;2065306;28;20031;-65
2021/09/28 04:28:21;;;;;;;7.77;3.83;;;;;;;8.63;96.88;102059.56;2065522;28;20038;-65
2021/09/28 04:29:21;;;;;;;7.53;3.10;;;;;;;8.63;96.78;102050.91;2065223;28;20034;-65
2021/09/28 04:30:22;;;;;;;8.03;2.53;;;;;;;8.61;96.81;102052.66;2064605;28;20209;-65
2021/09/28 04:31:23;;;;;;;9.75;3.60;;;;;;;8.62;97.01;102064.78;2056596;28;20030;-65
2021/09/28 04:32:23;;;;;;;8.10;3.40;;;;;;;8.60;96.82;102061.34;2064658;28;20120;-65
2021/09/28 04:33:23;;;;;;;4.50;3.17;;;;;;;8.60;97.09;102066.56;2065288;28;20101;-65
2021/09/28 04:34:23;;;;;;;7.50;3.47;;;;;;;8.56;96.86;102065.75;2065427;28;20049;-66
2021/09/28 04:35:24;;;;;;;7.60;2.13;;;;;;;8.53;96.50;102063.19;2065367;28;20018;-66
2021/09/28 04:36:24;;;;;;;9.77;3.87;;;;;;;8.54;96.90;102062.31;2065197;28;20040;-67
2021/09/28 04:37:24;;;;;;;8.23;3.30;;;;;;;8.56;97.24;102065.75;2065218;28;20026;-65
2021/09/28 04:38:25;;;;;;;8.10;3.77;;;;;;;8.59;97.25;102059.66;2065390;28;20018;-65
2021/09/28 04:39:25;;;;;;;9.53;4.03;;;;;;;8.59;96.86;102064.84;2065319;28;20024;-65
2021/09/28 04:40:25;;;;;;;8.07;3.13;;;;;;;8.58;97.06;102063.97;2065209;28;20097;-66
2021/09/28 04:41:26;;;;;;;4.97;2.93;;;;;;;8.56;96.92;102059.69;2064547;28;20018;-65
2021/09/28 04:42:26;;;;;;;5.07;2.77;;;;;;;8.53;96.82;102059.69;2056521;28;20169;-65
2021/09/28 04:43:26;;;;;;;6.63;3.43;;;;;;;8.55;96.99;102070.97;2064556;28;20022;-66
2021/09/28 04:44:27;;;;;;;15.07;4.67;;;;;;;8.53;96.90;102067.50;2065449;28;20034;-65